My Meet Scores
Kenna Leishman, GymNasti - MyMeetScores.com
Top100 | Top Teams | Upcoming Meets | Completed Meets | Latest | Add Scores | Help| Support | Bookmark and Share

Kenna Leishman, GymNasti
Personal Bests
LevelVault BarsBeamFloorAA
39.4759.250 9.1759.27536.825
49.4508.950 9.3259.30036.750
Meet Scores
Date Meet Team Session Level Division Vault Bars Beam Floor AA
2018-03-08 Level 4 & 5 State GymNasti All 4 Jr F 9.375 2 8.750 13T 9.225 11T 9.000 11T 36.350 8
2018-02-23 Kinetic Classic GymNasti 6 4 Older 8.950 33T 8.700 64T 8.375 69T 8.875 64* 34.900 61T
2018-01-26 King Arthur Invitational GymNasti 2 4 Sr A 9.125 2 8.450 9 9.000 5 9.025 5 35.600 4
2018-01-12 St Jude Benefit Meet GymNasti 2A 4 SrB 9.000 2T 8.950 7T 9.200 6 9.300 3 36.450 3T
2017-12-08 St. Nick Invite GymNasti 7A 4 SrA 9.325 2T 8.900 7T 9.325 4 9.200 4 36.750 2
2017-03-10 2017 Illinois Level 4 State Championships GymNasti 4 4 Youth D 9.450 1 8.475 22 8.850 21T 8.700 24 35.475 15
2017-02-17 Midwest Open GymNasti 2B 4 Sr A 9.250 4 8.850 11 8.700 14 8.800 8T 35.600 8
2017-02-10 IGI Chicago Style Gymnastics Meet GymNasti 632L 4 JrB 8.750 8 8.600 12 9.125 3 8.400 16 34.875 10
2017-02-03 2017 Gateway Challenge GymNasti 6B 4 9 8.850 5T 8.200 10T 8.450 15 8.975 9 34.475 8
2017-01-20 2017 Bravo Classic GymNasti 08B 4 9yrs 9.025 2T 8.600 16 8.950 12 8.800 12 35.375 10
2017-01-13 St Jude Benefit Meet GymNasti 3A 4 Jr C 8.625 2T 8.600 7 8.450 15 8.800 6 34.475 8
2016-12-09 St. Nick Invite GymNasti 7 4 JrB 9.075 4 8.300 12 8.800 14 8.825 9 35.000 11
2016-03-04 2016 Illinois Level 3 State Championships GymNasti 3 Junior-A 9.250 14 9.075 12 8.475 20 9.200 9 36.000 12
2016-02-19 Midwest Open Womens 2016 GymNasti 1A 3 9+ 9.475 8 9.200 11 9.000 7 9.050 13 36.725 11
2016-02-12 IGI Chicago Style Gymnastics Meet GymNasti 213 3 SrA 9.275 8 9.250 4 9.175 4 9.125 10 36.825 4
2016-01-22 King Arthur Invitational GymNasti S13 3 Sr.A 9.225 8 9.175 7 8.800 13 9.125 7 36.325 9
2016-01-08 St Jude Benefit Meet GymNasti 7A 3 Sr A 9.450 9 8.650 8 8.625 17 9.275 7T 36.000 8
2015-12-04 2015 Ultimate Wish Classic GymNasti 11B 3 All 8.875 43 9.250 15 9.000 23 9.200 28 36.325 19
2015-03-12 2015 Illinois Level 3 State Championship GymNasti All 3 Child-F 9.125 19 8.775 20 8.175 28 9.100 13 35.175 24
2015-02-20 Midwest Open 2015 GymNasti 3A 3 8 9.050 20 8.700 16 8.200 18 8.900 14 34.850 14

www.lazysuits.com